Liss, United Kingdom
Current Conditions -  °F | °C
As of 2:50 AM on Wednesday 26 Nov 2014 (Local Time) from EGVO Reporting Station
Light Rain Light Rain  
Wind Chill: 41°   Ceiling: 200
Heat Index: 45°   Visibility: 0.93mi
Dew Point: 45°   Wind: 6mph
Humidity: 100%   Direction: 30°NNE
Pressure: 29.91"   Gusts: NA
Location:  51.04°N, 0.89°W
Report Text: EGVO 260250Z 03005KT 1500 -RADZ OVC002 07/07 Q1013 AMB
Loading
Personal Weather Stations






























Interactive Weather Map New forecast layout! Learn more

10-Day Weather Forecast

Advertisements
Track Severe Weather on mobile